Time;durP1;ratioP1;P1;durP2;ratioP2;P2;SDS_P1;SDS_P2;PMS_P1;PMS_P2;Temp;Humidity;BMP_temperature;BMP_pressure;BME280_temperature;BME280_humidity;BME280_pressure;Samples;Min_cycle;Max_cycle;Signal;HPM_P1;HPM_P2
2022/03/22 00:00:37;;;;;;;154.95;74.60;;;4.40;45.80;;;;;;5015782;28;20026;-64
2022/03/22 00:03:04;;;;;;;261.58;123.85;;;4.40;47.00;;;;;;5015573;28;20075;-64
2022/03/22 00:05:31;;;;;;;268.67;130.88;;;4.30;48.10;;;;;;5015666;28;20533;-64
2022/03/22 00:07:59;;;;;;;218.27;108.63;;;4.10;49.00;;;;;;5015595;28;20025;-64
2022/03/22 00:10:25;;;;;;;212.13;110.22;;;4.00;49.00;;;;;;5015177;28;20401;-64
2022/03/22 00:12:51;;;;;;;191.23;95.18;;;4.00;49.80;;;;;;5015424;28;20034;-64
2022/03/22 00:15:17;;;;;;;189.48;95.80;;;4.00;49.10;;;;;;5014070;28;20143;-64
2022/03/22 00:17:44;;;;;;;217.52;108.88;;;4.10;49.10;;;;;;5015243;28;20053;-64
2022/03/22 00:20:10;;;;;;;202.57;103.85;;;3.90;48.90;;;;;;5015357;28;20028;-64
2022/03/22 00:22:40;;;;;;;202.30;103.93;;;3.70;50.00;;;;;;5015388;28;20029;-64
2022/03/22 00:25:08;;;;;;;175.82;91.95;;;3.60;50.60;;;;;;5015000;28;20018;-64
2022/03/22 00:27:52;;;;;;;157.73;84.43;;;3.60;51.20;;;;;;5015228;28;20052;-64
2022/03/22 00:30:22;;;;;;;144.15;73.70;;;3.50;50.90;;;;;;5015240;28;20018;-64
2022/03/22 00:32:52;;;;;;;126.18;67.07;;;3.50;51.50;;;;;;5015055;28;20058;-64
2022/03/22 00:35:18;;;;;;;117.50;61.95;;;3.50;51.00;;;;;;5015104;28;20113;-64
2022/03/22 00:37:46;;;;;;;103.80;54.50;;;3.60;50.20;;;;;;5015210;28;20045;-64
2022/03/22 00:40:18;;;;;;;107.05;53.65;;;3.70;49.30;;;;;;5014857;28;20024;-64
2022/03/22 00:42:49;;;;;;;99.90;51.78;;;3.80;47.70;;;;;;5015009;28;20419;-64
2022/03/22 00:45:18;;;;;;;128.50;65.18;;;3.90;48.10;;;;;;5014860;28;20026;-64
2022/03/22 00:47:45;;;;;;;118.28;63.72;;;3.90;50.10;;;;;;5014854;28;20034;-64
2022/03/22 00:50:12;;;;;;;101.05;52.22;;;3.50;51.20;;;;;;5014765;28;20076;-64
2022/03/22 00:52:38;;;;;;;92.28;48.63;;;3.40;51.30;;;;;;5014648;28;20033;-65
2022/03/22 00:55:05;;;;;;;87.75;45.10;;;3.50;50.60;;;;;;5014568;28;20026;-65
2022/03/22 00:57:34;;;;;;;88.35;45.35;;;3.60;49.90;;;;;;5014641;28;20026;-65
2022/03/22 01:00:06;;;;;;;81.68;41.53;;;3.70;48.90;;;;;;5014821;28;20376;-64
2022/03/22 01:02:37;;;;;;;80.65;40.80;;;3.80;48.50;;;;;;5014701;28;20029;-64
2022/03/22 01:05:06;;;;;;;70.13;37.60;;;3.80;48.40;;;;;;5014518;28;20105;-64
2022/03/22 01:07:35;;;;;;;72.28;38.08;;;3.80;48.50;;;;;;5014445;28;20037;-64
2022/03/22 01:10:05;;;;;;;67.90;35.58;;;3.80;48.00;;;;;;5014364;28;20105;-65
2022/03/22 01:12:31;;;;;;;83.43;41.67;;;3.80;47.50;;;;;;5014506;28;20369;-64
2022/03/22 01:14:58;;;;;;;65.80;35.58;;;3.80;47.70;;;;;;5014357;28;20050;-64
2022/03/22 01:17:23;;;;;;;59.55;32.75;;;3.80;47.90;;;;;;5014347;28;20116;-64
2022/03/22 01:19:49;;;;;;;60.50;32.55;;;3.70;47.70;;;;;;5014179;28;20065;-65
2022/03/22 01:22:16;;;;;;;67.45;34.63;;;3.70;47.80;;;;;;5014253;28;20029;-65
2022/03/22 01:24:42;;;;;;;53.83;30.70;;;3.70;48.30;;;;;;5014052;28;20491;-64
2022/03/22 01:27:08;;;;;;;60.65;33.08;;;3.60;48.20;;;;;;5014187;28;20018;-64
2022/03/22 01:29:34;;;;;;;77.80;39.90;;;3.70;48.00;;;;;;5014084;28;20029;-65
2022/03/22 01:32:00;;;;;;;80.60;42.80;;;3.60;47.80;;;;;;5014122;28;20056;-64
2022/03/22 01:34:26;;;;;;;68.60;35.95;;;3.40;48.30;;;;;;5014040;28;20022;-64
2022/03/22 01:36:51;;;;;;;70.18;36.80;;;3.30;49.80;;;;;;5013941;28;20384;-64
2022/03/22 01:39:17;;;;;;;68.78;36.92;;;3.30;49.70;;;;;;5013762;28;20018;-64
2022/03/22 01:41:43;;;;;;;75.25;37.90;;;3.40;49.50;;;;;;5013950;28;20069;-65
2022/03/22 01:44:09;;;;;;;62.35;33.17;;;3.40;49.50;;;;;;5013574;28;20105;-64
2022/03/22 01:46:36;;;;;;;61.75;32.50;;;3.30;49.30;;;;;;5013662;28;20097;-64
2022/03/22 01:49:02;;;;;;;66.10;33.97;;;3.30;49.30;;;;;;5013836;28;20026;-64
2022/03/22 01:51:31;;;;;;;85.57;42.83;;;3.30;48.80;;;;;;5013726;28;20025;-64
2022/03/22 01:53:57;;;;;;;63.65;34.55;;;3.20;48.90;;;;;;5013511;28;20543;-64
2022/03/22 01:56:23;;;;;;;64.28;34.90;;;3.10;49.40;;;;;;5013783;28;20018;-64
2022/03/22 01:58:49;;;;;;;57.65;30.38;;;3.10;49.20;;;;;;5013919;28;20437;-64
2022/03/22 02:06:46;;;;;;;51.30;28.35;;;3.20;49.60;;;;;;5013496;28;19913;-64
2022/03/22 02:09:12;;;;;;;51.03;26.63;;;3.20;49.60;;;;;;5013637;28;20076;-64
2022/03/22 02:11:38;;;;;;;47.95;27.02;;;3.10;49.00;;;;;;5014025;28;20095;-64
2022/03/22 02:14:05;;;;;;;45.63;26.13;;;3.10;48.80;;;;;;5013321;28;20473;-64
2022/03/22 02:16:32;;;;;;;49.30;26.83;;;3.10;49.10;;;;;;5013763;28;20034;-64
2022/03/22 02:18:59;;;;;;;46.03;27.08;;;3.10;48.80;;;;;;5013409;28;20100;-65
2022/03/22 02:21:30;;;;;;;53.25;28.83;;;3.10;49.10;;;;;;5013286;28;20076;-64
2022/03/22 02:23:56;;;;;;;45.70;26.17;;;3.00;49.00;;;;;;5013475;28;20029;-64
2022/03/22 02:26:24;;;;;;;44.35;25.90;;;3.00;49.30;;;;;;5013409;28;20104;-64
2022/03/22 02:28:53;;;;;;;50.30;26.17;;;3.00;49.80;;;;;;5013438;28;20080;-64
2022/03/22 02:31:23;;;;;;;45.10;25.17;;;3.00;50.30;;;;;;5013376;28;20025;-64
2022/03/22 02:33:49;;;;;;;53.53;28.23;;;3.00;50.10;;;;;;5013341;28;20104;-64
2022/03/22 02:36:15;;;;;;;48.95;27.33;;;3.00;49.60;;;;;;5013216;28;20040;-64
2022/03/22 02:38:41;;;;;;;62.10;35.10;;;2.90;49.60;;;;;;5013279;28;20116;-64
2022/03/22 02:41:07;;;;;;;62.03;32.72;;;2.80;49.80;;;;;;5013275;28;20495;-64
2022/03/22 02:43:34;;;;;;;64.10;33.65;;;2.60;49.90;;;;;;5013190;28;20030;-64
2022/03/22 02:46:00;;;;;;;53.10;30.42;;;2.50;50.80;;;;;;5013297;28;20048;-65
2022/03/22 02:48:26;;;;;;;54.72;29.20;;;2.50;51.30;;;;;;5013100;28;20026;-65
2022/03/22 02:50:52;;;;;;;50.78;27.98;;;2.60;50.50;;;;;;5013044;28;20531;-65
2022/03/22 02:53:18;;;;;;;59.90;32.78;;;2.60;50.40;;;;;;5013363;28;20033;-65
2022/03/22 02:55:44;;;;;;;67.40;35.70;;;2.70;50.20;;;;;;5013013;28;20018;-65
2022/03/22 02:58:09;;;;;;;79.40;39.28;;;2.70;50.00;;;;;;5015987;28;20564;-65
2022/03/22 03:00:35;;;;;;;60.75;33.47;;;2.70;49.80;;;;;;5016869;28;20022;-65
2022/03/22 03:03:01;;;;;;;62.17;34.00;;;2.60;50.20;;;;;;5016671;28;20037;-65
2022/03/22 03:05:27;;;;;;;53.28;31.13;;;2.60;50.30;;;;;;5016725;28;20018;-65
2022/03/22 03:07:53;;;;;;;59.72;31.45;;;2.60;50.50;;;;;;5016806;28;20021;-65
2022/03/22 03:10:19;;;;;;;54.65;30.27;;;2.60;50.70;;;;;;5016665;28;20025;-65
2022/03/22 03:12:45;;;;;;;48.05;27.88;;;2.60;51.00;;;;;;5016590;28;20087;-65
2022/03/22 03:15:11;;;;;;;62.40;33.33;;;2.60;50.90;;;;;;5016485;28;20050;-65
2022/03/22 03:17:38;;;;;;;61.88;34.67;;;2.70;50.90;;;;;;5016617;28;20029;-65
2022/03/22 03:20:06;;;;;;;53.13;29.83;;;2.60;51.10;;;;;;5016553;28;20022;-65
2022/03/22 03:22:32;;;;;;;60.55;30.98;;;2.50;51.70;;;;;;5016502;28;20022;-65
2022/03/22 03:24:58;;;;;;;49.85;26.85;;;2.60;50.90;;;;;;5016492;28;20499;-65
2022/03/22 03:27:24;;;;;;;63.30;35.15;;;2.50;50.90;;;;;;5016301;28;20530;-65
2022/03/22 03:29:49;;;;;;;52.53;28.42;;;2.40;50.90;;;;;;5016399;28;20057;-65
2022/03/22 03:32:16;;;;;;;49.58;27.90;;;2.30;51.20;;;;;;5016542;28;20117;-65
2022/03/22 03:34:41;;;;;;;49.30;26.92;;;2.30;51.70;;;;;;5016282;28;20054;-65
2022/03/22 03:37:07;;;;;;;53.45;28.58;;;2.40;51.80;;;;;;5016745;28;20057;-66
2022/03/22 03:39:33;;;;;;;44.88;24.10;;;2.40;51.40;;;;;;5016208;28;20468;-63
2022/03/22 03:42:01;;;;;;;43.17;24.58;;;2.40;50.70;;;;;;5015980;28;20477;-65
2022/03/22 03:47:18;;;;;;;37.67;20.95;;;2.40;50.40;;;;;;5016225;28;20025;-65
2022/03/22 03:49:47;;;;;;;42.80;21.55;;;2.40;51.30;;;;;;5015776;28;20025;-65
2022/03/22 03:52:22;;;;;;;38.13;19.75;;;2.40;51.10;;;;;;5015857;28;20393;-65
2022/03/22 03:54:49;;;;;;;37.17;19.27;;;2.40;51.10;;;;;;5016144;28;20388;-65
2022/03/22 03:57:15;;;;;;;35.05;19.98;;;2.40;51.00;;;;;;5015859;28;20559;-65
2022/03/22 03:59:41;;;;;;;37.20;21.05;;;2.30;51.00;;;;;;5015821;28;20048;-66
2022/03/22 04:02:08;;;;;;;40.22;22.10;;;2.40;51.30;;;;;;5015506;28;20022;-65
2022/03/22 04:04:38;;;;;;;36.50;20.50;;;2.30;51.40;;;;;;5015812;28;20085;-65
2022/03/22 04:07:05;;;;;;;35.65;20.98;;;2.20;51.10;;;;;;5015728;28;20018;-66
2022/03/22 04:09:32;;;;;;;41.20;22.17;;;2.20;51.60;;;;;;5015269;28;20029;-65
2022/03/22 04:11:58;;;;;;;41.50;23.30;;;2.20;51.00;;;;;;5015976;28;20108;-63
2022/03/22 04:14:23;;;;;;;33.67;20.55;;;2.20;51.00;;;;;;5015331;28;20146;-63
2022/03/22 04:16:50;;;;;;;39.15;20.67;;;2.20;51.40;;;;;;5015261;28;20026;-65
2022/03/22 04:19:16;;;;;;;44.13;23.15;;;2.10;51.40;;;;;;5015466;28;20025;-65
2022/03/22 04:21:42;;;;;;;34.55;20.75;;;2.00;51.10;;;;;;5015425;28;20121;-65
2022/03/22 04:24:11;;;;;;;44.75;23.60;;;2.10;51.70;;;;;;5015316;28;20026;-65
2022/03/22 04:26:39;;;;;;;44.15;23.10;;;2.00;51.00;;;;;;5015506;28;20026;-65
2022/03/22 04:34:36;;;;;;;65.93;34.65;;;2.00;51.00;;;;;;5015356;28;20503;-62
2022/03/22 04:37:02;;;;;;;48.25;27.27;;;1.80;51.70;;;;;;5015175;28;20534;-63
2022/03/22 04:39:30;;;;;;;52.25;28.25;;;1.60;52.30;;;;;;5015183;28;20080;-63
2022/03/22 04:41:57;;;;;;;55.45;29.25;;;1.70;52.20;;;;;;5014916;28;20469;-63
2022/03/22 04:44:24;;;;;;;49.35;27.08;;;1.80;52.50;;;;;;5015091;28;20029;-63
2022/03/22 04:46:50;;;;;;;45.45;26.40;;;1.80;52.10;;;;;;5014825;28;20026;-63
2022/03/22 04:49:16;;;;;;;46.58;25.40;;;1.80;51.90;;;;;;5014768;28;20029;-63
2022/03/22 04:57:11;;;;;;;51.60;27.45;;;1.80;51.80;;;;;;5015042;28;20460;-63
2022/03/22 04:59:37;;;;;;;63.33;33.30;;;1.80;51.90;;;;;;5014813;28;20028;-63
2022/03/22 05:02:03;;;;;;;75.95;40.60;;;1.80;51.80;;;;;;5014494;28;20093;-63
2022/03/22 05:04:28;;;;;;;74.57;37.92;;;1.70;51.90;;;;;;5014750;28;20088;-63
2022/03/22 05:06:54;;;;;;;81.55;38.03;;;1.60;52.60;;;;;;5014733;28;20077;-63
2022/03/22 05:09:22;;;;;;;82.07;37.45;;;1.70;54.20;;;;;;5014514;28;20184;-63
2022/03/22 05:11:48;;;;;;;73.97;38.38;;;1.70;54.10;;;;;;5014695;28;20029;-66
2022/03/22 05:14:14;;;;;;;94.53;45.05;;;1.80;53.80;;;;;;5014551;28;20018;-64
2022/03/22 05:16:40;;;;;;;95.20;44.80;;;1.90;54.30;;;;;;5014212;28;20472;-64
2022/03/22 05:19:05;;;;;;;71.30;35.42;;;2.00;53.20;;;;;;5013869;28;20022;-64
2022/03/22 05:21:32;;;;;;;86.18;41.55;;;1.90;52.80;;;;;;5014142;28;20490;-64
2022/03/22 05:23:58;;;;;;;87.55;43.25;;;2.00;52.80;;;;;;5014486;28;20033;-64
2022/03/22 05:26:26;;;;;;;65.72;36.50;;;1.90;52.20;;;;;;5014212;28;20018;-64
2022/03/22 05:28:52;;;;;;;72.53;34.95;;;1.90;52.80;;;;;;5014180;28;20121;-65
2022/03/22 05:31:18;;;;;;;65.63;35.40;;;1.90;52.90;;;;;;5013942;28;20072;-64
2022/03/22 05:33:44;;;;;;;67.45;36.38;;;2.00;53.10;;;;;;5013987;28;20471;-64
2022/03/22 05:36:10;;;;;;;84.75;42.33;;;2.10;53.60;;;;;;5014104;28;20026;-64
2022/03/22 05:38:36;;;;;;;81.45;40.78;;;2.10;53.40;;;;;;5013971;28;20022;-64
2022/03/22 05:41:03;;;;;;;71.57;37.58;;;2.20;54.20;;;;;;5013896;28;20022;-64
2022/03/22 05:43:29;;;;;;;60.33;33.55;;;2.20;52.90;;;;;;5014288;28;20018;-64
2022/03/22 05:45:55;;;;;;;54.92;32.38;;;2.30;52.50;;;;;;5013705;28;20025;-64
2022/03/22 05:48:23;;;;;;;48.10;27.38;;;2.40;52.90;;;;;;5013956;28;20068;-64
2022/03/22 05:50:48;;;;;;;229.57;105.82;;;2.40;52.80;;;;;;5013873;28;20065;-64
2022/03/22 05:53:14;;;;;;;371.73;179.05;;;2.50;53.30;;;;;;5013630;28;20442;-65
2022/03/22 05:55:41;;;;;;;415.52;198.25;;;2.10;54.90;;;;;;5013175;28;20050;-65
2022/03/22 05:58:07;;;;;;;400.58;207.95;;;1.70;56.70;;;;;;5013318;28;20029;-62
2022/03/22 06:00:33;;;;;;;371.20;185.02;;;1.60;57.30;;;;;;5005619;28;20030;-61
2022/03/22 06:03:00;;;;;;;468.73;272.42;;;1.60;57.40;;;;;;4995682;28;20982;-61
2022/03/22 06:05:28;;;;;;;483.67;284.05;;;1.70;57.80;;;;;;4999434;28;20030;-61
2022/03/22 06:07:55;;;;;;;449.10;256.25;;;1.70;58.40;;;;;;4992495;28;20060;-61
2022/03/22 06:10:21;;;;;;;433.42;242.38;;;1.70;59.00;;;;;;4991834;28;20093;-61
2022/03/22 06:12:52;;;;;;;425.30;234.80;;;1.60;59.80;;;;;;4992891;28;20121;-61
2022/03/22 06:15:24;;;;;;;374.70;197.82;;;1.70;60.30;;;;;;5006266;28;20450;-61
2022/03/22 06:17:51;;;;;;;361.33;188.63;;;1.80;60.20;;;;;;4991639;28;20110;-61
2022/03/22 06:20:19;;;;;;;302.85;159.77;;;3.30;59.50;;;;;;4997965;28;20044;-62
2022/03/22 06:22:46;;;;;;;248.45;129.63;;;6.30;52.10;;;;;;5004744;28;20022;-61
2022/03/22 06:25:13;;;;;;;305.92;153.80;;;8.60;45.40;;;;;;5017119;28;20053;-61
2022/03/22 06:27:40;;;;;;;333.10;168.88;;;10.50;40.60;;;;;;5014452;28;20030;-61
2022/03/22 06:30:08;;;;;;;356.27;185.77;;;11.80;38.40;;;;;;5008338;28;20400;-61
2022/03/22 06:32:42;;;;;;;400.38;204.57;;;12.60;36.60;;;;;;5018533;28;20174;-62
2022/03/22 06:35:10;;;;;;;319.20;163.50;;;13.20;35.90;;;;;;5025662;28;20021;-61
2022/03/22 06:37:37;;;;;;;459.33;248.30;;;13.60;34.60;;;;;;5036401;28;20112;-61
2022/03/22 06:40:05;;;;;;;419.48;220.30;;;13.70;35.00;;;;;;5035536;28;20160;-61
2022/03/22 06:42:31;;;;;;;453.52;245.00;;;13.70;34.30;;;;;;5020541;28;20125;-56
2022/03/22 06:44:57;;;;;;;422.17;231.63;;;13.80;34.30;;;;;;5002789;28;20101;-64
2022/03/22 06:47:23;;;;;;;384.42;216.95;;;13.90;34.20;;;;;;5015446;28;20056;-61
2022/03/22 06:49:49;;;;;;;355.30;203.00;;;14.10;34.10;;;;;;5019100;28;20504;-66
2022/03/22 06:52:14;;;;;;;446.35;249.68;;;14.80;33.00;;;;;;5018555;28;20034;-62
2022/03/22 06:54:40;;;;;;;484.27;276.23;;;15.70;32.00;;;;;;5017138;28;20200;-61
2022/03/22 06:57:06;;;;;;;471.92;264.20;;;15.80;31.60;;;;;;5019363;28;20028;-61
2022/03/22 06:59:34;;;;;;;447.23;250.50;;;15.90;31.90;;;;;;5012150;28;20479;-60
2022/03/22 07:02:00;;;;;;;390.77;210.25;;;16.20;31.20;;;;;;5014036;28;20034;-59
2022/03/22 07:04:26;;;;;;;268.50;144.50;;;16.60;30.20;;;;;;5015739;28;20026;-61
2022/03/22 07:06:52;;;;;;;256.88;136.50;;;16.90;30.10;;;;;;5016989;28;20025;-61
2022/03/22 07:09:18;;;;;;;222.93;124.93;;;17.20;29.60;;;;;;5012073;28;20030;-57
2022/03/22 07:11:49;;;;;;;194.20;109.45;;;17.50;29.70;;;;;;5042831;28;20110;-57
2022/03/22 07:14:19;;;;;;;165.75;98.10;;;18.30;29.50;;;;;;5009846;28;20637;-59
2022/03/22 07:16:48;;;;;;;153.88;88.53;;;19.40;28.40;;;;;;5012082;28;20121;-68
2022/03/22 07:19:19;;;;;;;139.38;83.90;;;20.40;27.70;;;;;;5010209;28;20495;-63
2022/03/22 07:21:45;;;;;;;164.73;96.60;;;21.10;27.20;;;;;;5004281;28;20707;-61
2022/03/22 07:24:13;;;;;;;138.20;83.03;;;21.40;26.70;;;;;;5010212;28;20025;-59
2022/03/22 07:26:40;;;;;;;124.38;75.97;;;21.60;26.80;;;;;;5013960;28;20420;-60
2022/03/22 07:29:07;;;;;;;122.10;75.25;;;22.10;26.10;;;;;;5013367;28;20384;-59
2022/03/22 07:31:41;;;;;;;92.00;59.65;;;22.80;25.80;;;;;;5017425;28;20472;-60
2022/03/22 07:34:11;;;;;;;108.03;67.93;;;23.60;25.30;;;;;;5011409;28;20566;-63
2022/03/22 07:36:39;;;;;;;99.90;64.32;;;23.70;27.60;;;;;;5011542;28;20026;-70
2022/03/22 07:39:05;;;;;;;80.75;54.13;;;24.20;26.70;;;;;;5012946;28;20120;-61
2022/03/22 07:41:31;;;;;;;86.55;56.85;;;24.60;25.00;;;;;;5012212;28;20022;-61
2022/03/22 07:43:57;;;;;;;85.97;56.53;;;25.10;25.10;;;;;;5014665;28;20625;-62
2022/03/22 07:46:23;;;;;;;75.85;51.25;;;25.00;25.30;;;;;;5021308;28;20112;-60
2022/03/22 07:48:53;;;;;;;57.90;42.72;;;25.40;24.50;;;;;;5018843;28;20472;-60
2022/03/22 07:54:04;;;;;;;52.60;36.08;;;25.90;24.20;;;;;;5021098;28;20072;-64
2022/03/22 07:56:30;;;;;;;54.20;37.88;;;26.10;24.40;;;;;;5013537;28;20132;-66
2022/03/22 07:58:57;;;;;;;63.50;43.97;;;25.90;23.50;;;;;;4998661;28;20030;-67
2022/03/22 08:01:23;;;;;;;59.13;39.13;;;25.20;23.50;;;;;;5007886;28;20060;-63
2022/03/22 08:03:48;;;;;;;53.60;36.20;;;24.70;23.50;;;;;;5005104;28;20452;-63
2022/03/22 08:06:14;;;;;;;49.65;36.22;;;24.30;23.30;;;;;;4999353;28;20053;-63
2022/03/22 08:08:43;;;;;;;56.55;38.33;;;23.50;24.00;;;;;;5012650;28;20034;-63
2022/03/22 08:11:09;;;;;;;60.58;40.92;;;23.20;23.80;;;;;;5001033;28;20518;-62
2022/03/22 08:13:36;;;;;;;68.47;42.83;;;23.00;24.20;;;;;;5005599;28;20045;-63
2022/03/22 08:16:03;;;;;;;60.85;39.40;;;22.30;24.40;;;;;;5003307;28;20056;-63
2022/03/22 08:18:29;;;;;;;54.30;36.88;;;22.60;24.60;;;;;;5024789;28;20025;-63
2022/03/22 08:20:56;;;;;;;50.42;37.60;;;23.20;23.70;;;;;;5023018;28;20104;-62
2022/03/22 08:23:22;;;;;;;48.72;36.05;;;23.30;24.40;;;;;;5020325;28;20047;-64
2022/03/22 08:25:49;;;;;;;53.72;38.33;;;24.20;23.90;;;;;;5020651;28;20556;-64
2022/03/22 08:28:16;;;;;;;48.83;35.13;;;24.20;23.80;;;;;;5011689;28;20423;-63
2022/03/22 08:30:42;;;;;;;47.17;35.08;;;24.40;24.00;;;;;;5011276;28;20029;-65
2022/03/22 08:33:09;;;;;;;44.95;33.63;;;24.20;23.80;;;;;;5028312;28;20405;-62
2022/03/22 08:35:38;;;;;;;48.75;33.83;;;24.30;23.40;;;;;;5012801;28;20022;-62
2022/03/22 08:38:04;;;;;;;44.58;32.40;;;24.50;23.60;;;;;;5010923;28;20420;-61
2022/03/22 08:40:30;;;;;;;37.65;29.15;;;24.10;25.20;;;;;;5003401;28;20067;-64
2022/03/22 08:42:57;;;;;;;45.30;32.88;;;24.30;24.20;;;;;;5005988;28;20108;-64
2022/03/22 08:45:25;;;;;;;44.25;34.00;;;23.20;24.00;;;;;;5005120;28;20508;-64
2022/03/22 08:47:53;;;;;;;38.05;29.23;;;23.20;25.20;;;;;;5012802;28;20038;-63
2022/03/22 08:50:21;;;;;;;39.00;30.05;;;23.30;23.70;;;;;;5018548;28;20022;-63
2022/03/22 08:52:48;;;;;;;41.15;31.13;;;23.20;23.80;;;;;;5021333;28;20116;-64
2022/03/22 08:55:18;;;;;;;38.25;30.00;;;23.30;23.70;;;;;;5013088;28;20026;-67
2022/03/22 08:57:47;;;;;;;45.88;34.70;;;23.30;23.90;;;;;;5005154;28;20114;-67
2022/03/22 09:00:14;;;;;;;50.20;37.95;;;22.10;25.40;;;;;;5008335;28;20388;-62
2022/03/22 09:02:43;;;;;;;51.72;39.33;;;21.40;25.10;;;;;;5006112;28;20076;-64
2022/03/22 09:07:57;;;;;;;46.85;34.78;;;21.60;25.00;;;;;;5009386;28;20442;-65
2022/03/22 09:10:24;;;;;;;53.95;36.30;;;21.70;24.50;;;;;;5008104;28;20025;-64
2022/03/22 09:12:50;;;;;;;52.22;36.90;;;21.40;24.70;;;;;;5009518;28;20495;-65
2022/03/22 09:15:21;;;;;;;56.10;39.33;;;20.80;25.50;;;;;;5010145;28;20374;-64
2022/03/22 09:17:47;;;;;;;48.45;36.83;;;21.00;25.10;;;;;;5006467;28;20058;-65
2022/03/22 09:20:13;;;;;;;56.50;39.65;;;20.60;26.20;;;;;;5009881;28;20037;-62
2022/03/22 09:22:44;;;;;;;59.15;40.55;;;20.00;26.10;;;;;;5009880;28;20080;-64
2022/03/22 09:25:13;;;;;;;59.60;40.65;;;19.80;26.60;;;;;;5005571;28;20029;-63
2022/03/22 09:27:45;;;;;;;54.90;41.67;;;20.20;26.70;;;;;;5010273;28;20499;-67
2022/03/22 09:30:12;;;;;;;49.33;36.95;;;20.00;26.90;;;;;;5017737;28;20125;-64
2022/03/22 09:32:40;;;;;;;53.90;39.92;;;20.10;26.60;;;;;;5003516;28;20066;-63
2022/03/22 09:35:07;;;;;;;53.83;41.25;;;20.20;26.50;;;;;;5005620;28;20385;-63
2022/03/22 09:37:41;;;;;;;55.58;41.38;;;20.30;26.30;;;;;;5003562;28;20093;-66
2022/03/22 09:40:09;;;;;;;51.10;38.80;;;20.40;26.30;;;;;;5000636;28;20626;-64
2022/03/22 09:42:37;;;;;;;48.63;38.15;;;20.10;26.30;;;;;;4998385;28;20407;-66
2022/03/22 09:45:05;;;;;;;51.83;39.15;;;20.00;27.00;;;;;;4994143;28;20066;-65
2022/03/22 09:47:30;;;;;;;55.60;38.10;;;20.30;26.60;;;;;;5014418;28;20073;-64
2022/03/22 09:49:56;;;;;;;49.85;38.15;;;20.20;28.70;;;;;;5008381;28;20072;-64
2022/03/22 09:52:23;;;;;;;49.13;37.75;;;19.80;27.00;;;;;;5007728;28;20030;-62
2022/03/22 09:54:49;;;;;;;50.35;39.60;;;20.10;26.30;;;;;;5016333;28;20025;-62
2022/03/22 09:57:16;;;;;;;54.33;38.10;;;20.00;26.10;;;;;;5006826;28;20015;-63
2022/03/22 09:59:42;;;;;;;48.05;36.00;;;20.00;27.80;;;;;;4990854;28;20029;-63
2022/03/22 10:02:09;;;;;;;46.03;36.88;;;20.30;27.70;;;;;;4992798;28;20026;-62
2022/03/22 10:04:39;;;;;;;46.05;34.72;;;20.60;26.40;;;;;;4996721;28;20030;-62
2022/03/22 10:07:07;;;;;;;46.78;36.45;;;21.10;25.90;;;;;;4994827;28;20034;-62
2022/03/22 10:09:39;;;;;;;45.58;31.85;;;20.90;25.90;;;;;;5005050;28;20018;-62
2022/03/22 10:12:10;;;;;;;43.33;33.53;;;21.00;25.80;;;;;;5005097;28;20461;-62
2022/03/22 10:14:40;;;;;;;49.65;32.47;;;20.50;25.70;;;;;;5006076;28;20049;-62
2022/03/22 10:17:12;;;;;;;42.83;34.47;;;19.80;25.90;;;;;;5007078;28;20286;-62
2022/03/22 10:19:45;;;;;;;50.35;34.90;;;19.70;26.40;;;;;;5007867;28;20033;-62
2022/03/22 10:22:12;;;;;;;48.13;34.40;;;19.70;26.60;;;;;;5010027;28;20105;-63
2022/03/22 10:24:46;;;;;;;46.70;35.75;;;20.00;26.60;;;;;;5016290;28;20083;-63
2022/03/22 10:27:38;;;;;;;44.53;35.15;;;20.20;26.80;;;;;;5014140;28;20084;-62
2022/03/22 10:30:10;;;;;;;44.53;32.53;;;20.90;26.10;;;;;;5016915;28;20542;-63
2022/03/22 10:32:39;;;;;;;45.67;32.10;;;21.40;25.50;;;;;;5010976;28;20033;-63
2022/03/22 10:35:23;;;;;;;46.70;33.63;;;20.50;25.60;;;;;;5008178;28;20113;-62
2022/03/22 10:37:52;;;;;;;39.75;32.25;;;20.50;27.50;;;;;;5008981;28;20026;-63
2022/03/22 10:40:31;;;;;;;39.22;28.73;;;21.00;25.80;;;;;;5012407;28;20028;-62
2022/03/22 10:43:19;;;;;;;41.13;31.77;;;20.90;24.80;;;;;;5016458;28;20026;-61
2022/03/22 10:45:48;;;;;;;44.60;33.13;;;21.40;25.60;;;;;;5001524;28;20381;-62
2022/03/22 10:48:22;;;;;;;41.72;32.88;;;21.20;25.80;;;;;;5008281;28;20108;-62
2022/03/22 10:50:49;;;;;;;38.70;31.30;;;21.00;25.20;;;;;;4990758;28;20034;-62
2022/03/22 10:53:17;;;;;;;34.10;28.23;;;21.00;25.70;;;;;;4991247;28;20023;-62
2022/03/22 10:55:44;;;;;;;31.55;25.92;;;20.80;25.90;;;;;;5006088;28;20026;-62
2022/03/22 10:58:13;;;;;;;32.53;25.23;;;21.20;25.90;;;;;;4990223;28;20408;-63
2022/03/22 11:00:45;;;;;;;31.77;24.02;;;21.20;25.50;;;;;;4986823;28;20064;-63
2022/03/22 11:03:13;;;;;;;28.20;22.58;;;21.40;25.30;;;;;;5005846;28;20025;-63
2022/03/22 11:05:41;;;;;;;32.53;23.15;;;21.30;25.70;;;;;;5007103;28;20046;-63
2022/03/22 11:08:07;;;;;;;35.83;26.55;;;21.30;25.70;;;;;;5025395;28;20073;-63
2022/03/22 11:10:33;;;;;;;29.00;21.85;;;21.20;25.50;;;;;;4994152;28;20060;-63
2022/03/22 11:12:59;;;;;;;27.83;22.92;;;20.60;25.90;;;;;;5005174;28;20113;-62
2022/03/22 11:15:35;;;;;;;25.48;20.92;;;20.60;26.20;;;;;;5006951;28;20051;-62
2022/03/22 11:18:02;;;;;;;23.30;20.17;;;21.20;26.00;;;;;;5010934;28;20030;-62
2022/03/22 11:20:28;;;;;;;22.42;19.20;;;21.60;25.00;;;;;;5013456;28;20469;-62
2022/03/22 11:23:00;;;;;;;22.05;17.73;;;21.90;25.70;;;;;;5012975;28;20061;-63
2022/03/22 11:25:31;;;;;;;14.63;13.02;;;22.30;25.70;;;;;;5010958;28;20036;-64
2022/03/22 11:28:08;;;;;;;9.40;7.90;;;22.60;26.00;;;;;;5013287;28;20516;-62
2022/03/22 11:30:36;;;;;;;9.32;8.43;;;22.60;24.10;;;;;;5038293;28;20021;-69
2022/03/22 11:35:59;;;;;;;9.27;8.38;;;22.40;23.80;;;;;;5009375;28;20044;-69
2022/03/22 11:38:39;;;;;;;8.77;7.30;;;22.10;24.00;;;;;;5010294;28;20029;-69
2022/03/22 11:43:50;;;;;;;11.85;8.88;;;21.40;24.60;;;;;;5011040;28;20648;-68
2022/03/22 11:46:16;;;;;;;8.07;7.18;;;21.30;25.30;;;;;;5012169;28;20418;-68
2022/03/22 11:48:41;;;;;;;9.13;8.23;;;21.70;25.70;;;;;;5011087;28;20026;-68
2022/03/22 11:51:09;;;;;;;10.80;8.50;;;22.10;25.70;;;;;;5013577;28;20093;-69
2022/03/22 11:53:42;;;;;;;9.13;7.90;;;22.30;24.70;;;;;;5017721;28;20448;-69
2022/03/22 11:56:09;;;;;;;7.88;7.07;;;22.50;25.00;;;;;;5020996;28;20021;-67
2022/03/22 11:58:35;;;;;;;8.65;7.75;;;22.70;25.10;;;;;;5017619;28;20077;-67
2022/03/22 12:01:03;;;;;;;8.00;7.30;;;22.80;26.00;;;;;;5009798;28;20034;-67
2022/03/22 12:03:35;;;;;;;7.68;6.88;;;23.20;25.50;;;;;;4998436;28;20113;-68
2022/03/22 12:06:13;;;;;;;8.50;7.63;;;23.30;25.60;;;;;;5005193;28;20072;-69
2022/03/22 12:08:41;;;;;;;7.72;7.05;;;23.40;25.20;;;;;;5012341;28;20026;-68
2022/03/22 12:11:11;;;;;;;9.68;7.95;;;23.70;25.30;;;;;;5001529;28;20034;-68
2022/03/22 12:13:50;;;;;;;8.80;7.90;;;23.70;23.40;;;;;;4992295;28;20030;-67
2022/03/22 12:16:16;;;;;;;9.25;8.15;;;23.60;24.40;;;;;;4998363;28;20038;-68
2022/03/22 12:18:42;;;;;;;9.27;8.38;;;23.70;26.00;;;;;;5003681;28;20022;-69
2022/03/22 12:21:19;;;;;;;10.05;7.95;;;23.80;25.10;;;;;;5002037;28;20041;-66
2022/03/22 12:23:47;;;;;;;8.55;7.75;;;24.10;24.80;;;;;;5019612;28;20164;-66
2022/03/22 12:26:13;;;;;;;9.25;8.35;;;24.40;25.90;;;;;;5019153;28;20374;-66
2022/03/22 12:28:49;;;;;;;9.55;8.55;;;24.30;25.60;;;;;;5010518;28;20034;-65
2022/03/22 12:31:15;;;;;;;8.77;7.97;;;24.30;25.60;;;;;;5020319;28;20018;-63
2022/03/22 12:33:42;;;;;;;8.85;7.95;;;24.40;24.90;;;;;;5022588;28;20029;-68
2022/03/22 12:36:08;;;;;;;8.98;8.07;;;24.60;25.20;;;;;;5017974;28;20030;-66
2022/03/22 12:38:34;;;;;;;9.52;8.32;;;24.90;25.80;;;;;;5012145;28;20036;-67
2022/03/22 12:41:02;;;;;;;8.43;7.65;;;24.90;25.20;;;;;;5017845;28;20022;-66
2022/03/22 12:43:29;;;;;;;8.15;7.45;;;24.60;24.40;;;;;;5019595;28;20081;-64
2022/03/22 12:45:56;;;;;;;8.27;7.57;;;24.40;24.60;;;;;;5020585;28;20735;-68
2022/03/22 12:48:27;;;;;;;9.68;7.75;;;24.30;25.60;;;;;;5020782;28;20427;-68
2022/03/22 12:50:54;;;;;;;9.27;8.38;;;24.60;24.70;;;;;;5017344;28;20041;-65
2022/03/22 12:53:22;;;;;;;8.95;7.80;;;24.80;25.00;;;;;;5015496;28;20037;-66
2022/03/22 12:55:48;;;;;;;10.05;7.93;;;24.80;25.70;;;;;;5010664;28;20670;-64
2022/03/22 12:58:14;;;;;;;7.93;7.15;;;24.70;24.50;;;;;;5010471;28;20068;-64
2022/03/22 13:00:41;;;;;;;9.13;7.85;;;24.70;24.40;;;;;;5009464;28;20435;-65
2022/03/22 13:03:12;;;;;;;9.27;8.30;;;24.80;25.20;;;;;;4998708;28;20018;-64